Time;durP1;ratioP1;P1;durP2;ratioP2;P2;SDS_P1;SDS_P2;PMS_P1;PMS_P2;Temp;Humidity;BMP_temperature;BMP_pressure;BME280_temperature;BME280_humidity;BME280_pressure;Samples;Min_cycle;Max_cycle;Signal;HPM_P1;HPM_P2
2023/04/01 00:01:40;;;;;;;5.88;4.93;;;10.30;99.90;;;;;;5092670;28;20509;-79
2023/04/01 00:04:05;;;;;;;6.60;5.28;;;10.30;99.90;;;;;;5111306;28;20043;-80
2023/04/01 00:06:31;;;;;;;9.23;5.47;;;10.30;99.90;;;;;;5109432;28;20047;-80
2023/04/01 00:08:57;;;;;;;8.00;4.68;;;10.30;99.90;;;;;;5111404;28;20088;-80
2023/04/01 00:11:22;;;;;;;10.32;5.32;;;10.50;99.90;;;;;;5109870;28;20395;-80
2023/04/01 00:13:48;;;;;;;8.20;4.70;;;10.30;99.90;;;;;;5093605;28;20095;-80
2023/04/01 00:16:15;;;;;;;7.63;4.82;;;10.40;99.90;;;;;;5110914;28;20129;-80
2023/04/01 00:18:41;;;;;;;7.13;5.00;;;10.30;99.90;;;;;;5109861;28;20546;-80
2023/04/01 00:21:06;;;;;;;6.75;4.95;;;10.30;99.90;;;;;;5111399;28;20038;-80
2023/04/01 00:23:32;;;;;;;6.95;5.10;;;10.30;99.90;;;;;;5109499;28;20043;-80
2023/04/01 00:26:00;;;;;;;8.15;6.00;;;10.30;99.90;;;;;;5094458;28;20125;-80
2023/04/01 00:28:27;;;;;;;6.70;4.65;;;10.30;99.90;;;;;;5109678;28;20110;-80
2023/04/01 00:30:52;;;;;;;8.38;5.15;;;10.30;99.90;;;;;;5094031;28;20035;-80
2023/04/01 00:33:18;;;;;;;7.78;4.75;;;10.30;99.90;;;;;;5093659;28;20055;-80
2023/04/01 00:35:44;;;;;;;7.32;5.15;;;10.30;99.90;;;;;;5075890;28;20031;-80
2023/04/01 00:38:11;;;;;;;13.07;6.18;;;10.30;99.90;;;;;;5111089;28;20141;-80
2023/04/01 00:40:42;;;;;;;8.88;4.70;;;10.30;99.90;;;;;;5109506;28;20493;-81
2023/04/01 00:43:20;;;;;;;6.60;4.90;;;10.50;99.90;;;;;;5114714;27;20555;-80
2023/04/01 00:45:49;;;;;;;8.05;5.13;;;10.40;99.90;;;;;;5113641;27;20105;-80
2023/04/01 00:48:23;;;;;;;6.10;4.68;;;10.30;99.90;;;;;;5114077;27;20051;-80
2023/04/01 00:51:00;;;;;;;10.23;4.88;;;10.30;99.90;;;;;;5097998;27;20046;-80
2023/04/01 00:53:27;;;;;;;6.13;4.65;;;10.20;99.90;;;;;;5096078;27;20051;-80
2023/04/01 00:56:09;;;;;;;6.47;5.15;;;10.20;99.90;;;;;;5114431;27;20050;-80
2023/04/01 00:58:38;;;;;;;8.93;5.20;;;10.20;99.90;;;;;;5113549;27;20039;-80
2023/04/01 01:01:05;;;;;;;7.75;4.88;;;10.20;99.90;;;;;;5113869;27;20047;-80
2023/04/01 01:03:31;;;;;;;9.27;5.65;;;10.20;99.90;;;;;;5080647;27;20039;-80
2023/04/01 01:06:34;;;;;;;7.13;5.32;;;10.20;99.90;;;;;;5112642;27;20046;-80
2023/04/01 01:09:28;;;;;;;5.75;4.80;;;10.20;99.90;;;;;;5097367;27;20047;-79
2023/04/01 01:12:17;;;;;;;6.68;5.18;;;10.20;99.90;;;;;;5113890;27;20047;-80
2023/04/01 01:14:59;;;;;;;6.95;5.40;;;10.20;99.90;;;;;;5112179;27;20149;-80
2023/04/01 01:18:09;;;;;;;8.40;5.95;;;10.20;99.90;;;;;;5097487;27;20383;-80
2023/04/01 01:21:11;;;;;;;9.77;5.00;;;10.20;99.90;;;;;;5114020;27;20118;-79
2023/04/01 01:24:03;;;;;;;7.43;6.05;;;10.20;99.90;;;;;;5094674;27;20135;-80
2023/04/01 01:27:01;;;;;;;10.27;5.63;;;10.20;99.90;;;;;;5113880;27;20047;-80
2023/04/01 01:29:51;;;;;;;9.00;5.85;;;10.20;99.90;;;;;;5096921;27;20043;-80
2023/04/01 01:33:08;;;;;;;8.98;6.00;;;10.20;99.90;;;;;;5112032;27;20043;-80
2023/04/01 01:35:54;;;;;;;7.82;5.78;;;10.20;99.90;;;;;;5010681;28;20157;-80
2023/04/01 01:38:26;;;;;;;7.15;6.03;;;10.20;99.90;;;;;;4995816;28;20092;-80
2023/04/01 01:40:56;;;;;;;8.93;6.15;;;10.20;99.90;;;;;;5075611;27;20091;-79
2023/04/01 01:43:30;;;;;;;10.82;6.57;;;10.20;99.90;;;;;;5096886;27;20039;-80
2023/04/01 01:45:59;;;;;;;10.23;6.20;;;10.20;99.90;;;;;;5113173;27;20096;-79
2023/04/01 01:48:27;;;;;;;10.00;6.47;;;10.20;99.90;;;;;;5112432;27;20100;-80
2023/04/01 01:50:53;;;;;;;7.70;5.72;;;10.20;99.90;;;;;;5096847;27;20121;-80
2023/04/01 01:53:19;;;;;;;7.47;6.10;;;10.50;99.90;;;;;;5094539;27;20050;-80
2023/04/01 01:55:46;;;;;;;10.30;6.38;;;10.20;99.90;;;;;;5096180;27;20059;-79
2023/04/01 01:58:40;;;;;;;10.13;5.95;;;10.20;99.90;;;;;;5094785;27;20559;-80
2023/04/01 02:01:12;;;;;;;7.75;6.82;;;10.20;99.90;;;;;;5112479;27;20063;-79
2023/04/01 02:03:40;;;;;;;9.02;6.28;;;10.20;99.90;;;;;;5113560;27;20072;-79
2023/04/01 02:06:12;;;;;;;9.07;6.50;;;10.20;99.90;;;;;;5094256;27;20125;-80
2023/04/01 02:09:04;;;;;;;9.07;6.80;;;10.20;99.90;;;;;;5113417;27;20043;-80
2023/04/01 02:11:35;;;;;;;8.27;6.55;;;10.60;99.90;;;;;;5111381;27;20134;-79
2023/04/01 02:14:04;;;;;;;10.70;6.43;;;10.20;99.90;;;;;;5111729;27;20039;-80
2023/04/01 02:16:43;;;;;;;10.32;6.22;;;10.20;99.90;;;;;;5095990;27;20050;-80
2023/04/01 02:19:10;;;;;;;6.57;5.90;;;10.20;99.90;;;;;;5129857;27;20407;-80
2023/04/01 02:21:37;;;;;;;8.15;6.68;;;10.40;99.90;;;;;;5131154;27;20605;-79
2023/04/01 02:24:08;;;;;;;9.13;6.97;;;10.20;99.90;;;;;;5111846;27;20402;-80
2023/04/01 02:26:34;;;;;;;10.45;7.70;;;10.20;99.90;;;;;;5112607;27;20051;-80
2023/04/01 02:29:02;;;;;;;14.15;7.63;;;10.20;99.90;;;;;;5112455;27;20043;-79
2023/04/01 02:31:28;;;;;;;9.20;8.27;;;10.20;99.90;;;;;;5110968;27;20046;-79
2023/04/01 02:33:54;;;;;;;9.90;7.50;;;10.20;99.90;;;;;;5095817;27;20130;-80
2023/04/01 02:36:21;;;;;;;8.05;7.03;;;10.20;99.90;;;;;;5076690;27;20035;-79
2023/04/01 02:38:49;;;;;;;9.77;7.65;;;10.10;99.90;;;;;;5112930;27;20080;-79
2023/04/01 02:41:15;;;;;;;9.52;7.13;;;10.10;99.90;;;;;;5111539;27;20389;-80
2023/04/01 02:43:41;;;;;;;9.40;7.32;;;10.20;99.90;;;;;;5095212;27;20039;-79
2023/04/01 02:46:07;;;;;;;13.57;6.78;;;10.10;99.90;;;;;;5112087;27;20074;-79
2023/04/01 02:48:32;;;;;;;11.48;6.60;;;10.10;99.90;;;;;;5110651;27;20043;-80
2023/04/01 02:50:58;;;;;;;9.90;7.43;;;10.10;99.90;;;;;;5112676;27;20051;-80
2023/04/01 02:53:24;;;;;;;13.48;7.55;;;10.20;99.90;;;;;;5093450;27;20041;-80
2023/04/01 02:55:51;;;;;;;13.43;8.10;;;10.10;99.90;;;;;;5111998;27;20101;-80
2023/04/01 02:58:17;;;;;;;11.25;8.07;;;10.10;99.90;;;;;;5094365;27;20043;-80
2023/04/01 03:00:43;;;;;;;10.90;8.23;;;10.10;99.90;;;;;;5111595;27;20087;-80
2023/04/01 03:03:09;;;;;;;12.25;9.05;;;10.10;99.90;;;;;;5077835;27;20047;-80
2023/04/01 03:05:35;;;;;;;14.27;8.45;;;10.10;99.90;;;;;;5110290;27;20494;-80
2023/04/01 03:08:02;;;;;;;11.75;8.27;;;10.10;99.90;;;;;;5111972;27;20058;-80
2023/04/01 03:10:28;;;;;;;13.85;10.18;;;10.10;99.90;;;;;;5110141;27;20027;-81
2023/04/01 03:12:54;;;;;;;15.38;9.50;;;10.10;99.90;;;;;;5095564;27;20116;-80
2023/04/01 03:15:20;;;;;;;14.23;9.68;;;10.10;99.90;;;;;;5110496;27;20047;-80
2023/04/01 03:17:46;;;;;;;13.23;10.13;;;10.10;99.90;;;;;;5111435;27;20494;-80
2023/04/01 03:20:12;;;;;;;13.27;9.52;;;10.00;99.90;;;;;;5094342;27;20096;-80
2023/04/01 03:22:39;;;;;;;11.60;9.98;;;10.20;99.90;;;;;;5128902;27;20058;-80
2023/04/01 03:25:05;;;;;;;17.63;10.82;;;10.00;99.90;;;;;;5111620;27;20541;-80
2023/04/01 03:27:31;;;;;;;16.42;10.68;;;10.00;99.90;;;;;;5109711;27;20051;-80
2023/04/01 03:29:56;;;;;;;12.18;10.18;;;10.00;99.90;;;;;;5112084;27;20054;-80
2023/04/01 03:32:22;;;;;;;14.80;10.27;;;9.90;99.90;;;;;;5109977;27;20042;-80
2023/04/01 03:34:48;;;;;;;15.25;10.27;;;9.90;99.90;;;;;;5130013;27;20054;-80
2023/04/01 03:37:14;;;;;;;11.70;9.68;;;9.90;99.90;;;;;;5093891;27;20062;-80
2023/04/01 03:39:40;;;;;;;14.60;10.63;;;10.00;99.90;;;;;;5093657;27;20047;-80
2023/04/01 03:42:06;;;;;;;18.95;10.43;;;9.90;99.90;;;;;;5094551;27;20055;-80
2023/04/01 03:44:33;;;;;;;15.13;11.23;;;9.90;99.90;;;;;;5109556;28;20035;-80
2023/04/01 03:46:59;;;;;;;13.25;10.70;;;9.90;99.90;;;;;;5094767;28;20347;-80
2023/04/01 03:49:25;;;;;;;13.00;10.73;;;9.90;99.90;;;;;;5092961;27;20047;-80
2023/04/01 03:51:51;;;;;;;12.95;10.32;;;9.90;99.90;;;;;;5111235;28;20039;-81
2023/04/01 03:54:19;;;;;;;20.15;11.45;;;9.90;99.90;;;;;;5076822;28;20054;-81
2023/04/01 03:56:45;;;;;;;15.77;10.65;;;10.30;99.90;;;;;;5106677;28;20074;-81
2023/04/01 03:59:12;;;;;;;14.18;10.63;;;9.90;99.90;;;;;;5091309;28;20039;-81
2023/04/01 04:01:38;;;;;;;14.25;10.70;;;9.90;99.90;;;;;;5106702;28;20051;-81
2023/04/01 04:04:04;;;;;;;12.93;10.57;;;9.90;99.90;;;;;;5107956;28;20072;-81
2023/04/01 04:06:30;;;;;;;12.35;10.13;;;9.90;99.90;;;;;;5106765;28;20083;-81
2023/04/01 04:08:56;;;;;;;12.48;10.38;;;10.00;99.90;;;;;;5107584;28;20060;-81
2023/04/01 04:11:22;;;;;;;13.68;10.55;;;9.90;99.90;;;;;;5107038;28;20040;-81
2023/04/01 04:13:48;;;;;;;14.48;11.40;;;9.90;99.90;;;;;;5106940;28;20040;-82
2023/04/01 04:16:15;;;;;;;14.02;10.88;;;9.90;99.90;;;;;;5091537;28;20126;-80
2023/04/01 04:18:41;;;;;;;13.50;9.52;;;9.90;99.90;;;;;;5110126;28;20046;-81
2023/04/01 04:21:11;;;;;;;20.52;11.15;;;9.90;99.90;;;;;;5112542;28;20047;-81
2023/04/01 04:23:37;;;;;;;12.82;9.82;;;9.90;99.90;;;;;;5094057;28;20040;-81
2023/04/01 04:26:08;;;;;;;11.35;10.02;;;10.00;99.90;;;;;;5111813;28;20048;-81
2023/04/01 04:28:34;;;;;;;13.32;10.13;;;9.90;99.90;;;;;;5094193;28;20043;-81
2023/04/01 04:31:00;;;;;;;14.05;11.05;;;9.90;99.90;;;;;;5077288;28;20180;-81
2023/04/01 04:33:26;;;;;;;18.23;10.90;;;10.00;99.90;;;;;;5094630;28;20044;-80
2023/04/01 04:35:54;;;;;;;14.55;11.00;;;10.80;99.90;;;;;;5110245;28;20039;-80
2023/04/01 04:38:20;;;;;;;15.77;10.85;;;10.50;99.90;;;;;;5094525;28;20086;-80
2023/04/01 04:40:45;;;;;;;13.90;11.35;;;9.90;99.90;;;;;;5110126;28;20101;-81
2023/04/01 04:43:13;;;;;;;15.18;10.95;;;9.90;99.90;;;;;;5111596;28;20040;-81
2023/04/01 04:45:39;;;;;;;15.88;11.13;;;9.90;99.90;;;;;;5076917;28;20122;-80
2023/04/01 04:48:07;;;;;;;15.73;11.60;;;9.90;99.90;;;;;;5093515;28;20050;-80
2023/04/01 04:50:35;;;;;;;15.15;11.40;;;9.90;99.90;;;;;;5094677;28;20050;-80
2023/04/01 04:53:02;;;;;;;14.95;11.98;;;9.90;99.90;;;;;;5109431;28;20032;-80
2023/04/01 04:55:27;;;;;;;15.98;11.85;;;10.10;99.90;;;;;;5096676;27;20083;-81
2023/04/01 04:57:53;;;;;;;13.43;11.30;;;10.00;99.90;;;;;;5096293;27;20563;-81
2023/04/01 05:00:19;;;;;;;13.93;11.55;;;9.90;99.90;;;;;;5097671;27;20100;-82
2023/04/01 05:02:44;;;;;;;19.00;11.85;;;10.00;99.90;;;;;;5114043;27;20043;-82
2023/04/01 05:05:10;;;;;;;18.33;12.25;;;10.10;99.90;;;;;;5079543;27;20073;-82
2023/04/01 05:07:36;;;;;;;19.17;13.65;;;10.00;99.90;;;;;;5114610;27;20058;-82
2023/04/01 05:10:02;;;;;;;21.25;13.07;;;10.00;99.90;;;;;;5131184;27;20390;-81
2023/04/01 05:12:28;;;;;;;18.10;12.40;;;10.00;99.90;;;;;;5114688;27;20132;-82
2023/04/01 05:14:53;;;;;;;19.52;13.52;;;10.00;99.90;;;;;;5112419;27;20490;-83
2023/04/01 05:17:19;;;;;;;21.33;14.15;;;9.90;99.90;;;;;;5132547;27;20067;-81
2023/04/01 05:19:45;;;;;;;17.30;13.65;;;10.00;99.90;;;;;;5113074;27;20050;-81
2023/04/01 05:22:10;;;;;;;18.13;13.07;;;10.00;99.90;;;;;;5096440;27;20039;-81
2023/04/01 05:24:36;;;;;;;18.35;14.20;;;10.00;99.90;;;;;;5113763;27;20039;-81
2023/04/01 05:27:02;;;;;;;17.52;14.13;;;9.90;99.90;;;;;;5077938;27;20078;-80
2023/04/01 05:29:27;;;;;;;17.00;13.27;;;10.00;99.90;;;;;;5114423;27;20043;-80
2023/04/01 05:31:53;;;;;;;22.02;13.75;;;10.00;99.90;;;;;;5095103;27;20043;-80
2023/04/01 05:34:19;;;;;;;19.08;13.40;;;10.00;99.90;;;;;;5097196;27;20046;-81
2023/04/01 05:36:45;;;;;;;17.25;13.27;;;10.00;99.90;;;;;;5112752;27;20043;-81
2023/04/01 05:39:10;;;;;;;15.93;12.60;;;10.00;99.90;;;;;;5113217;27;20312;-81
2023/04/01 05:41:37;;;;;;;17.88;13.15;;;10.00;99.90;;;;;;5113308;27;20146;-81
2023/04/01 05:44:04;;;;;;;16.67;13.15;;;10.80;99.90;;;;;;5112283;27;20043;-81
2023/04/01 05:46:30;;;;;;;14.45;11.63;;;10.10;99.90;;;;;;5113665;27;20100;-81
2023/04/01 05:48:56;;;;;;;14.98;12.57;;;10.10;99.90;;;;;;5130509;27;20120;-82
2023/04/01 05:51:22;;;;;;;13.63;11.52;;;10.10;99.90;;;;;;5114027;27;20039;-81
2023/04/01 05:53:48;;;;;;;15.32;11.23;;;10.00;99.90;;;;;;5096260;27;20054;-84
2023/04/01 05:56:14;;;;;;;17.42;11.65;;;10.00;99.90;;;;;;5096641;27;20055;-81
2023/04/01 05:58:40;;;;;;;18.33;11.48;;;10.10;99.90;;;;;;5114720;27;20058;-82
2023/04/01 06:01:08;;;;;;;15.32;10.93;;;10.10;99.90;;;;;;5079249;27;20411;-85
2023/04/01 06:03:34;;;;;;;14.88;10.07;;;10.30;99.90;;;;;;5114684;27;20051;-83
2023/04/01 06:06:00;;;;;;;13.85;11.15;;;10.10;99.90;;;;;;5095048;27;20410;-82
2023/04/01 06:08:29;;;;;;;19.65;14.55;;;10.60;99.90;;;;;;5080050;27;20047;-82
2023/04/01 06:11:13;;;;;;;17.17;13.35;;;10.20;99.90;;;;;;5112383;27;20137;-82
2023/04/01 06:14:02;;;;;;;17.63;13.55;;;10.20;99.90;;;;;;5113062;27;20050;-81
2023/04/01 06:16:30;;;;;;;15.48;11.73;;;10.20;99.90;;;;;;5097344;27;20138;-82
2023/04/01 06:19:25;;;;;;;14.50;11.13;;;10.20;99.90;;;;;;5096143;27;20062;-84
2023/04/01 06:22:23;;;;;;;14.10;11.55;;;10.70;99.90;;;;;;5099017;27;20081;-83
2023/04/01 06:25:03;;;;;;;16.67;12.93;;;10.40;99.90;;;;;;5114203;27;20110;-83
2023/04/01 06:27:47;;;;;;;16.27;12.90;;;10.30;99.90;;;;;;5094658;27;20399;-82
2023/04/01 06:30:38;;;;;;;18.55;13.52;;;10.40;99.90;;;;;;5112734;27;20047;-82
2023/04/01 06:33:19;;;;;;;21.80;15.50;;;10.40;99.90;;;;;;5112656;27;20049;-84
2023/04/01 06:35:57;;;;;;;17.40;13.88;;;10.40;99.90;;;;;;5111157;27;20496;-83
2023/04/01 06:38:25;;;;;;;22.20;14.27;;;10.40;99.90;;;;;;5112762;27;20043;-84
2023/04/01 06:41:10;;;;;;;16.98;13.70;;;10.40;99.90;;;;;;5110665;27;20103;-82
2023/04/01 06:44:00;;;;;;;19.05;14.32;;;10.40;99.90;;;;;;5094779;27;20058;-83
2023/04/01 06:46:59;;;;;;;17.55;14.80;;;10.40;99.90;;;;;;5112559;27;20049;-80
2023/04/01 06:49:40;;;;;;;19.63;15.02;;;10.50;99.90;;;;;;5078631;27;20510;-81
2023/04/01 06:52:49;;;;;;;19.60;15.23;;;10.40;99.90;;;;;;5094664;27;20043;-80
2023/04/01 06:55:27;;;;;;;18.95;15.48;;;10.50;99.90;;;;;;5030212;28;20103;-79
2023/04/01 06:57:57;;;;;;;21.02;16.88;;;10.50;99.90;;;;;;5029352;28;20077;-78
2023/04/01 07:00:26;;;;;;;21.33;16.15;;;10.50;99.90;;;;;;5077778;27;20090;-78
2023/04/01 07:03:06;;;;;;;21.17;16.45;;;10.50;99.90;;;;;;5112121;27;20069;-80
2023/04/01 07:05:33;;;;;;;21.23;16.48;;;10.60;99.90;;;;;;5110711;27;20122;-79
2023/04/01 07:08:03;;;;;;;19.83;15.32;;;10.60;99.90;;;;;;5095413;27;20039;-80
2023/04/01 07:10:51;;;;;;;22.40;16.70;;;10.60;99.90;;;;;;5110397;27;20035;-79
2023/04/01 07:13:27;;;;;;;18.92;15.15;;;10.60;99.90;;;;;;5094994;27;20095;-79
2023/04/01 07:16:09;;;;;;;30.25;17.02;;;10.60;99.90;;;;;;5111470;27;20131;-80
2023/04/01 07:19:02;;;;;;;19.10;15.90;;;10.70;99.90;;;;;;5110562;27;20077;-80
2023/04/01 07:21:47;;;;;;;20.38;16.90;;;10.90;99.90;;;;;;5080400;27;20055;-80
2023/04/01 07:24:26;;;;;;;23.60;16.33;;;10.70;99.90;;;;;;5111356;27;20051;-79
2023/04/01 07:26:57;;;;;;;20.30;16.00;;;10.70;99.90;;;;;;5093324;27;20039;-79
2023/04/01 07:29:24;;;;;;;24.27;17.45;;;10.80;99.90;;;;;;5111906;27;20043;-80
2023/04/01 07:31:56;;;;;;;23.60;16.92;;;10.90;99.90;;;;;;5109783;27;20048;-80
2023/04/01 07:34:28;;;;;;;22.65;16.70;;;11.30;99.90;;;;;;5094482;27;20050;-80
2023/04/01 07:37:01;;;;;;;18.35;16.05;;;11.00;99.90;;;;;;5110860;27;20043;-80
2023/04/01 07:39:55;;;;;;;21.00;15.38;;;11.00;99.90;;;;;;5093642;27;20039;-80
2023/04/01 07:42:27;;;;;;;18.00;15.38;;;11.10;99.90;;;;;;5094940;27;20047;-80
2023/04/01 07:45:10;;;;;;;21.42;15.32;;;11.20;99.90;;;;;;5093090;28;20050;-81
2023/04/01 07:47:35;;;;;;;;;;;11.30;99.90;;;;;;5111674;27;20058;-80
2023/04/01 07:50:13;;;;;;;18.65;14.95;;;11.40;99.90;;;;;;5110698;27;19919;-79
2023/04/01 07:53:02;;;;;;;18.95;14.30;;;11.50;99.90;;;;;;5110130;28;20100;-80
2023/04/01 07:55:45;;;;;;;17.67;14.05;;;11.60;99.90;;;;;;5111293;28;20043;-80
2023/04/01 07:58:22;;;;;;;17.27;13.32;;;11.60;99.90;;;;;;5110752;28;20375;-79
2023/04/01 08:00:51;;;;;;;15.55;13.55;;;11.60;99.90;;;;;;5110426;28;20097;-79
2023/04/01 08:03:35;;;;;;;14.63;12.45;;;11.60;99.90;;;;;;5094743;28;20047;-79
2023/04/01 08:06:19;;;;;;;15.13;13.10;;;11.60;99.90;;;;;;5092503;28;20039;-79
2023/04/01 08:08:51;;;;;;;16.90;12.20;;;11.60;99.90;;;;;;5093985;28;20050;-79
2023/04/01 08:12:00;;;;;;;14.75;11.63;;;11.70;99.90;;;;;;5110517;28;20085;-79
2023/04/01 08:15:21;;;;;;;14.35;11.32;;;11.80;99.90;;;;;;5027251;28;20049;-79
2023/04/01 08:17:50;;;;;;;13.20;10.38;;;11.90;99.90;;;;;;5048046;28;20040;-80
2023/04/01 08:20:42;;;;;;;14.18;11.10;;;12.00;99.90;;;;;;5084436;28;20055;-82
2023/04/01 08:23:21;;;;;;;14.63;12.43;;;12.00;99.90;;;;;;5109224;28;20082;-79
2023/04/01 08:26:18;;;;;;;14.07;11.27;;;12.00;99.90;;;;;;5093862;28;20050;-79
2023/04/01 08:28:51;;;;;;;15.55;12.02;;;12.00;99.90;;;;;;5111565;28;20046;-82
2023/04/01 08:31:32;;;;;;;16.88;12.32;;;12.00;99.90;;;;;;5092621;28;20031;-78
2023/04/01 08:34:00;;;;;;;13.68;12.18;;;12.00;99.90;;;;;;5111237;28;20050;-79
2023/04/01 08:36:33;;;;;;;16.60;11.75;;;11.90;99.90;;;;;;5092330;28;20043;-78
2023/04/01 08:38:59;;;;;;;14.05;11.15;;;11.90;99.90;;;;;;5110530;28;20043;-77
2023/04/01 08:41:47;;;;;;;13.80;11.90;;;11.90;99.90;;;;;;5110466;28;20086;-79
2023/04/01 08:44:31;;;;;;;13.15;10.95;;;11.90;99.90;;;;;;5109265;28;20078;-79
2023/04/01 08:46:59;;;;;;;7.43;5.88;;;12.00;99.90;;;;;;5111251;28;20065;-79
2023/04/01 08:49:40;;;;;;;5.35;4.38;;;11.90;99.90;;;;;;5092914;28;20401;-79
2023/04/01 08:52:34;;;;;;;9.80;4.03;;;11.80;99.90;;;;;;5110067;28;20050;-79
2023/04/01 08:55:00;;;;;;;5.03;3.75;;;11.60;99.90;;;;;;5093963;28;20523;-79
2023/04/01 08:57:34;;;;;;;4.55;3.60;;;11.40;99.90;;;;;;5108876;28;20054;-80
2023/04/01 09:00:28;;;;;;;5.53;4.10;;;11.30;99.90;;;;;;5093862;28;20105;-80
2023/04/01 09:03:06;;;;;;;7.28;4.68;;;11.30;99.90;;;;;;5112043;27;20054;-80
2023/04/01 09:05:56;;;;;;;5.18;3.60;;;11.20;99.90;;;;;;5112673;27;20039;-80
2023/04/01 09:08:30;;;;;;;6.75;4.15;;;11.20;99.90;;;;;;5097425;27;20039;-80
2023/04/01 09:11:12;;;;;;;4.93;3.72;;;11.10;99.90;;;;;;5096647;27;20138;-80
2023/04/01 09:13:59;;;;;;;8.57;5.13;;;11.00;99.90;;;;;;5113039;27;20050;-78
2023/04/01 09:16:55;;;;;;;4.35;2.05;;;10.90;99.90;;;;;;5114289;27;20051;-79
2023/04/01 09:19:33;;;;;;;3.30;2.25;;;10.80;99.90;;;;;;5112751;27;20552;-80
2023/04/01 09:22:14;;;;;;;2.83;2.35;;;10.80;99.90;;;;;;5113009;27;20045;-82
2023/04/01 09:24:44;;;;;;;3.17;2.08;;;10.90;99.90;;;;;;5114078;27;20072;-79
2023/04/01 09:27:28;;;;;;;4.10;2.13;;;11.00;99.90;;;;;;5111871;27;20509;-80
2023/04/01 09:30:10;;;;;;;2.90;1.80;;;11.00;99.90;;;;;;5113884;27;20046;-80
2023/04/01 09:32:52;;;;;;;4.75;1.88;;;11.10;99.90;;;;;;5096634;27;20096;-78
2023/04/01 09:35:48;;;;;;;3.00;1.60;;;11.20;99.90;;;;;;5112328;27;20047;-78
2023/04/01 09:38:28;;;;;;;2.33;1.50;;;11.20;99.90;;;;;;5071722;27;20059;-78
2023/04/01 09:41:00;;;;;;;4.20;1.80;;;11.20;99.90;;;;;;5112697;27;20068;-81
2023/04/01 09:43:26;;;;;;;2.30;1.30;;;11.30;99.90;;;;;;5112564;27;20051;-81
2023/04/01 09:46:07;;;;;;;4.60;1.98;;;11.20;99.90;;;;;;5113412;27;20089;-80
2023/04/01 09:49:21;;;;;;;3.03;1.48;;;11.10;99.90;;;;;;5130178;27;20478;-81
2023/04/01 09:52:12;;;;;;;6.82;4.00;;;11.10;99.90;;;;;;5113008;27;20375;-80
2023/04/01 09:54:49;;;;;;;2.72;1.67;;;11.00;99.90;;;;;;5096661;27;20478;-80
2023/04/01 09:57:34;;;;;;;3.15;1.40;;;11.00;99.90;;;;;;5094313;27;20094;-78
2023/04/01 10:00:35;;;;;;;5.22;1.95;;;10.90;99.90;;;;;;5096308;27;20043;-79
2023/04/01 10:03:38;;;;;;;4.00;1.80;;;10.80;99.90;;;;;;4995110;28;20049;-78
2023/04/01 10:06:52;;;;;;;3.05;1.45;;;10.70;99.90;;;;;;5094857;27;20137;-78
2023/04/01 10:09:47;;;;;;;3.63;1.40;;;10.60;99.90;;;;;;5102850;27;20111;-78
2023/04/01 10:12:47;;;;;;;2.75;1.30;;;10.60;99.90;;;;;;5113051;27;20165;-78
2023/04/01 10:15:37;;;;;;;2.60;1.40;;;10.50;99.90;;;;;;5095179;27;20031;-78
2023/04/01 10:18:22;;;;;;;4.38;1.60;;;10.50;99.90;;;;;;5111474;27;20049;-81
2023/04/01 10:21:07;;;;;;;6.15;1.33;;;10.50;99.90;;;;;;5113275;27;20578;-80
2023/04/01 10:23:54;;;;;;;2.90;1.60;;;10.50;99.90;;;;;;5094954;27;20076;-80
2023/04/01 10:26:45;;;;;;;2.30;1.08;;;10.50;99.90;;;;;;5111532;27;20043;-80
2023/04/01 10:29:41;;;;;;;3.28;1.80;;;10.50;99.90;;;;;;5096105;27;20345;-81
2023/04/01 10:32:26;;;;;;;4.18;1.00;;;10.40;99.90;;;;;;5111167;27;20494;-79
2023/04/01 10:35:20;;;;;;;3.00;1.30;;;10.40;99.90;;;;;;5111484;27;20047;-78
2023/04/01 10:38:19;;;;;;;2.85;1.02;;;10.40;99.90;;;;;;5096059;27;20476;-78
2023/04/01 10:41:13;;;;;;;1.60;0.80;;;10.30;99.90;;;;;;5094478;27;20426;-78
2023/04/01 10:44:00;;;;;;;0.88;0.70;;;10.40;99.90;;;;;;5111139;27;20079;-78
2023/04/01 10:47:11;;;;;;;3.55;1.23;;;10.40;99.90;;;;;;5112490;27;20047;-78
2023/04/01 10:50:08;;;;;;;4.97;1.45;;;10.50;99.90;;;;;;5111987;27;20196;-78
2023/04/01 10:53:09;;;;;;;2.33;1.63;;;10.40;99.90;;;;;;5094029;27;20058;-80
2023/04/01 10:55:40;;;;;;;6.43;1.77;;;10.40;99.90;;;;;;5111975;27;20505;-82
2023/04/01 10:58:15;;;;;;;2.05;1.48;;;10.40;99.90;;;;;;5094579;27;20154;-82
2023/04/01 11:00:54;;;;;;;2.58;1.30;;;10.40;99.90;;;;;;5093758;27;20049;-82
2023/04/01 11:03:47;;;;;;;1.85;1.58;;;10.30;99.90;;;;;;5112362;27;20130;-81
2023/04/01 11:06:16;;;;;;;1.75;1.63;;;10.30;99.90;;;;;;5110940;27;20043;-79
2023/04/01 11:09:30;;;;;;;2.20;1.40;;;10.30;99.90;;;;;;5111676;27;20096;-78
2023/04/01 11:12:47;;;;;;;6.25;1.58;;;10.30;99.90;;;;;;5073286;27;20051;-78
2023/04/01 11:15:39;;;;;;;2.13;1.30;;;10.40;99.90;;;;;;5055588;27;20093;-78
2023/04/01 11:18:27;;;;;;;1.15;0.98;;;10.40;99.90;;;;;;5110316;27;20096;-79
2023/04/01 11:21:07;;;;;;;2.92;1.75;;;10.50;99.90;;;;;;5111818;27;20039;-78
2023/04/01 11:23:48;;;;;;;2.67;1.60;;;10.60;99.90;;;;;;5110629;27;20049;-78
2023/04/01 11:26:17;;;;;;;2.22;1.08;;;10.60;99.90;;;;;;5110378;27;20043;-79
2023/04/01 11:28:58;;;;;;;2.70;1.05;;;10.60;99.90;;;;;;5111796;27;20054;-78
2023/04/01 11:31:58;;;;;;;4.00;1.42;;;10.50;99.90;;;;;;5092866;27;20091;-79
2023/04/01 11:34:52;;;;;;;2.22;1.10;;;10.50;99.90;;;;;;5094867;27;20042;-79
2023/04/01 11:37:27;;;;;;;2.38;1.30;;;10.60;99.90;;;;;;5094629;27;20041;-78
2023/04/01 11:39:55;;;;;;;3.92;1.27;;;10.70;99.90;;;;;;5109686;27;20039;-78
2023/04/01 11:42:28;;;;;;;2.08;1.23;;;10.70;99.90;;;;;;5111517;27;20568;-79
2023/04/01 11:45:04;;;;;;;6.32;3.15;;;10.70;99.90;;;;;;5093360;27;20054;-78
2023/04/01 11:47:59;;;;;;;5.55;1.80;;;10.70;99.90;;;;;;5110673;28;20126;-78
2023/04/01 11:50:37;;;;;;;3.22;1.50;;;10.70;99.90;;;;;;5064881;27;20100;-78
2023/04/01 11:53:27;;;;;;;2.67;1.40;;;10.80;99.90;;;;;;5092875;27;20043;-78
2023/04/01 11:56:06;;;;;;;2.05;1.00;;;10.80;99.90;;;;;;5093797;28;20553;-78
2023/04/01 11:59:17;;;;;;;4.63;1.17;;;10.80;99.90;;;;;;5094624;28;20062;-80
2023/04/01 12:02:13;;;;;;;2.47;1.17;;;10.90;99.90;;;;;;5092885;28;20529;-80
2023/04/01 12:05:07;;;;;;;3.10;1.20;;;10.90;99.90;;;;;;5091921;28;20104;-79
2023/04/01 12:07:46;;;;;;;2.97;1.02;;;10.90;99.90;;;;;;5111435;28;20051;-78
2023/04/01 12:10:27;;;;;;;8.60;1.10;;;10.90;99.90;;;;;;5093163;28;20042;-80
2023/04/01 12:13:31;;;;;;;2.20;1.10;;;10.90;99.90;;;;;;5094401;28;20119;-77
2023/04/01 12:16:15;;;;;;;1.73;0.93;;;10.90;99.90;;;;;;5094374;28;20047;-78
2023/04/01 12:19:03;;;;;;;2.38;0.80;;;10.80;99.90;;;;;;5109855;28;20105;-79
2023/04/01 12:21:49;;;;;;;1.42;0.80;;;10.80;99.90;;;;;;5111077;28;20543;-78
2023/04/01 12:24:31;;;;;;;1.00;0.80;;;10.80;99.90;;;;;;5094386;28;20058;-77
2023/04/01 12:27:18;;;;;;;1.60;0.88;;;10.30;99.90;;;;;;5109324;28;20044;-79
2023/04/01 12:30:13;;;;;;;2.58;1.10;;;10.70;99.90;;;;;;5094133;28;20401;-79
2023/04/01 12:33:00;;;;;;;2.78;1.02;;;10.80;99.90;;;;;;5021698;28;20054;-79
2023/04/01 12:35:48;;;;;;;2.20;0.68;;;10.70;99.90;;;;;;5108840;28;20145;-78
2023/04/01 12:38:31;;;;;;;1.45;1.05;;;10.70;99.90;;;;;;5096745;27;20385;-79
2023/04/01 12:41:09;;;;;;;;;;;10.80;99.90;;;;;;5114912;27;20054;-79
2023/04/01 12:43:54;;;;;;;5.47;0.90;;;10.80;99.90;;;;;;5096106;27;19919;-78
2023/04/01 12:46:54;;;;;;;1.77;0.82;;;10.80;99.90;;;;;;5114714;27;20054;-80
2023/04/01 12:49:55;;;;;;;2.78;0.77;;;10.80;99.90;;;;;;5114365;27;20047;-80
2023/04/01 12:52:44;;;;;;;3.65;1.10;;;10.90;99.90;;;;;;5113264;27;20129;-80
2023/04/01 12:55:37;;;;;;;1.80;0.98;;;11.40;99.90;;;;;;5114529;27;20047;-81
2023/04/01 12:58:16;;;;;;;2.50;0.98;;;11.00;99.90;;;;;;5112785;27;20047;-80
2023/04/01 13:00:48;;;;;;;3.42;0.93;;;11.10;99.90;;;;;;5095181;27;20043;-80
2023/04/01 13:03:43;;;;;;;2.13;1.13;;;11.10;99.90;;;;;;5096062;27;20046;-79
2023/04/01 13:06:33;;;;;;;1.52;0.98;;;11.10;99.90;;;;;;5006348;27;20053;-78
2023/04/01 13:09:23;;;;;;;1.77;0.90;;;11.10;99.90;;;;;;5099839;27;20047;-78
2023/04/01 13:12:16;;;;;;;3.28;0.95;;;10.90;99.90;;;;;;5112893;27;20047;-78
2023/04/01 13:14:57;;;;;;;3.67;1.52;;;10.90;99.90;;;;;;5095135;27;20039;-78
2023/04/01 13:17:42;;;;;;;1.92;0.80;;;10.70;99.90;;;;;;5095293;27;20047;-78
2023/04/01 13:20:16;;;;;;;1.30;0.63;;;10.70;99.90;;;;;;5113069;27;20046;-77
2023/04/01 13:23:06;;;;;;;1.63;0.70;;;10.70;99.90;;;;;;5094787;27;20049;-77
2023/04/01 13:25:41;;;;;;;1.08;0.63;;;10.60;99.90;;;;;;5095454;27;20054;-78
2023/04/01 13:28:21;;;;;;;3.55;0.70;;;10.60;99.90;;;;;;5112280;27;20050;-79
2023/04/01 13:30:59;;;;;;;4.15;0.80;;;10.70;99.90;;;;;;5094266;27;20120;-77